Time;durP1;ratioP1;P1;durP2;ratioP2;P2;SDS_P1;SDS_P2;PMS_P1;PMS_P2;Temp;Humidity;BMP_temperature;BMP_pressure;BME280_temperature;BME280_humidity;BME280_pressure;Samples;Min_cycle;Max_cycle;Signal;HPM_P1;HPM_P2
2023/03/19 00:00:58;;;;;;;45.57;22.57;;;5.60;99.90;;;;;;2621311;47;20049;31
2023/03/19 00:03:33;;;;;;;45.92;21.15;;;5.60;99.90;;;;;;2621699;47;20075;31
2023/03/19 00:06:13;;;;;;;35.45;20.52;;;5.60;99.90;;;;;;2603031;54;20852;31
2023/03/19 00:08:51;;;;;;;30.13;17.88;;;5.60;99.90;;;;;;2602764;54;20074;31
2023/03/19 00:11:26;;;;;;;29.15;17.85;;;5.60;99.90;;;;;;2772684;31;21374;31
2023/03/19 00:14:01;;;;;;;32.47;19.33;;;5.60;99.90;;;;;;2602223;54;20945;31
2023/03/19 00:16:41;;;;;;;33.57;18.57;;;5.50;99.90;;;;;;2602081;54;20537;31
2023/03/19 00:19:20;;;;;;;35.95;20.92;;;5.40;99.90;;;;;;2621274;47;20556;31
2023/03/19 00:22:00;;;;;;;37.33;22.47;;;5.30;99.90;;;;;;2621149;47;20085;31
2023/03/19 00:24:36;;;;;;;36.53;20.58;;;5.20;99.90;;;;;;2602683;54;20340;31
2023/03/19 00:27:11;;;;;;;34.80;20.10;;;5.20;99.90;;;;;;2616212;47;20136;31
2023/03/19 00:29:49;;;;;;;32.35;19.45;;;5.20;99.90;;;;;;2602999;54;20069;31
2023/03/19 00:32:24;;;;;;;36.10;20.30;;;5.20;99.90;;;;;;2603659;54;20053;31
2023/03/19 00:35:00;;;;;;;37.55;20.85;;;5.10;99.90;;;;;;2621726;46;19936;31
2023/03/19 00:37:39;;;;;;;37.93;21.10;;;5.10;99.90;;;;;;2702138;39;21344;31
2023/03/19 00:40:17;;;;;;;31.02;18.83;;;5.10;99.90;;;;;;2603519;54;20128;31
2023/03/19 00:42:53;;;;;;;35.20;20.15;;;5.00;99.90;;;;;;2622422;46;20785;31
2023/03/19 00:45:29;;;;;;;36.00;20.63;;;5.00;99.90;;;;;;2616751;46;20042;31
2023/03/19 00:48:06;;;;;;;32.30;19.95;;;5.00;99.90;;;;;;2603444;54;20099;31
2023/03/19 00:50:42;;;;;;;33.13;18.73;;;4.90;99.90;;;;;;2622164;46;20037;31
2023/03/19 00:53:24;;;;;;;30.08;18.63;;;4.90;99.90;;;;;;2603644;54;20632;31
2023/03/19 00:56:00;;;;;;;33.33;18.35;;;4.90;99.90;;;;;;2602697;54;20865;31
2023/03/19 00:58:39;;;;;;;36.15;20.30;;;4.90;99.90;;;;;;2603552;54;20038;31
2023/03/19 01:01:16;;;;;;;40.85;19.95;;;4.80;99.90;;;;;;2602745;54;20859;31
2023/03/19 01:03:52;;;;;;;32.28;19.48;;;4.80;99.90;;;;;;2603694;54;20826;31
2023/03/19 01:06:27;;;;;;;37.53;21.27;;;4.80;99.90;;;;;;2603491;54;20068;31
2023/03/19 01:09:06;;;;;;;33.92;19.42;;;4.70;99.90;;;;;;2602780;54;20046;31
2023/03/19 01:11:42;;;;;;;37.50;21.88;;;4.70;99.90;;;;;;2603542;54;20050;31
2023/03/19 01:14:18;;;;;;;33.35;19.05;;;4.70;99.90;;;;;;2603503;54;20027;31
2023/03/19 01:16:53;;;;;;;35.05;19.83;;;4.70;99.90;;;;;;2621734;46;20055;31
2023/03/19 01:19:31;;;;;;;36.92;19.98;;;4.70;99.90;;;;;;2603419;54;20027;31
2023/03/19 01:22:08;;;;;;;35.20;20.05;;;4.60;99.90;;;;;;2603455;54;20030;31
2023/03/19 01:25:04;;;;;;;32.60;19.92;;;4.60;99.90;;;;;;2603351;54;20031;31
2023/03/19 01:27:43;;;;;;;36.40;19.40;;;4.60;99.90;;;;;;2621917;46;20026;31
2023/03/19 01:30:21;;;;;;;33.95;20.20;;;4.50;99.90;;;;;;2603471;54;20891;31
2023/03/19 01:33:21;;;;;;;34.15;20.20;;;4.40;99.90;;;;;;2701739;39;20463;31
2023/03/19 01:36:08;;;;;;;34.00;19.20;;;4.40;99.90;;;;;;2603505;54;19938;31
2023/03/19 01:39:02;;;;;;;39.08;21.45;;;4.30;99.90;;;;;;2720400;39;20489;31
2023/03/19 01:41:42;;;;;;;37.75;20.42;;;4.30;99.90;;;;;;2621790;46;20037;31
2023/03/19 01:44:48;;;;;;;39.15;20.25;;;4.30;99.90;;;;;;2603290;54;20932;31
2023/03/19 01:47:34;;;;;;;37.60;20.20;;;4.30;99.90;;;;;;2603519;54;20026;31
2023/03/19 01:50:19;;;;;;;39.85;20.70;;;4.30;99.90;;;;;;2621978;46;20026;31
2023/03/19 01:53:00;;;;;;;39.55;19.63;;;4.20;99.90;;;;;;2621788;46;20040;31
2023/03/19 01:55:41;;;;;;;36.63;20.67;;;4.20;99.90;;;;;;2603555;54;20031;31
2023/03/19 01:58:41;;;;;;;38.72;21.23;;;4.10;99.90;;;;;;2603189;54;20618;31
2023/03/19 02:01:26;;;;;;;41.08;21.20;;;4.10;99.90;;;;;;2603356;54;19942;31
2023/03/19 02:04:02;;;;;;;35.00;21.25;;;4.10;99.90;;;;;;2701969;39;21636;31
2023/03/19 02:06:42;;;;;;;39.50;21.45;;;4.10;99.90;;;;;;2621752;46;20026;31
2023/03/19 02:09:17;;;;;;;36.95;21.60;;;4.10;99.90;;;;;;2603238;54;20089;31
2023/03/19 02:11:53;;;;;;;42.97;22.45;;;4.00;99.90;;;;;;2603312;54;20050;31
2023/03/19 02:14:33;;;;;;;35.10;20.20;;;4.00;99.90;;;;;;2603521;54;20031;31
2023/03/19 02:17:09;;;;;;;40.50;21.70;;;3.90;99.90;;;;;;2603334;54;19941;31
2023/03/19 02:19:49;;;;;;;35.15;20.70;;;4.00;99.90;;;;;;2603363;54;20057;31
2023/03/19 02:22:22;;;;;;;38.53;21.67;;;3.90;99.90;;;;;;2603304;54;20037;31
2023/03/19 02:24:59;;;;;;;37.75;20.45;;;3.90;99.90;;;;;;2603270;54;21202;31
2023/03/19 02:27:38;;;;;;;37.70;20.38;;;3.90;99.90;;;;;;2622028;46;20833;31
2023/03/19 02:30:23;;;;;;;36.20;20.73;;;3.90;99.90;;;;;;2603307;54;20891;31
2023/03/19 02:32:59;;;;;;;37.10;21.52;;;3.90;99.90;;;;;;2603595;54;20928;31
2023/03/19 02:35:36;;;;;;;38.67;21.48;;;3.90;99.90;;;;;;2701940;39;20462;31
2023/03/19 02:38:11;;;;;;;39.25;22.05;;;3.90;99.90;;;;;;2603499;54;20858;31
2023/03/19 02:40:50;;;;;;;32.85;19.27;;;3.80;99.90;;;;;;2603319;54;20128;31
2023/03/19 02:43:28;;;;;;;34.40;19.17;;;3.90;99.90;;;;;;2610906;46;20934;31
2023/03/19 02:46:04;;;;;;;38.33;20.95;;;3.90;99.90;;;;;;2622254;46;20821;31
2023/03/19 02:48:40;;;;;;;42.90;22.65;;;3.90;99.90;;;;;;2603165;54;20031;31
2023/03/19 02:51:15;;;;;;;41.50;21.95;;;3.90;99.90;;;;;;2700945;39;20482;31
2023/03/19 02:53:50;;;;;;;44.40;22.70;;;3.90;99.90;;;;;;2609554;46;20030;31
2023/03/19 02:56:27;;;;;;;39.15;20.83;;;3.90;99.90;;;;;;2603149;54;20082;31
2023/03/19 02:59:05;;;;;;;40.97;21.48;;;3.90;99.90;;;;;;2603376;54;20030;31
2023/03/19 03:01:42;;;;;;;38.20;21.58;;;3.90;99.90;;;;;;2603023;54;19941;31
2023/03/19 03:04:18;;;;;;;36.67;20.57;;;3.80;99.90;;;;;;2720214;39;20547;31
2023/03/19 03:06:54;;;;;;;42.72;22.63;;;3.90;99.90;;;;;;2603139;54;20100;31
2023/03/19 03:09:29;;;;;;;32.13;20.42;;;3.90;99.90;;;;;;2603056;54;20139;31
2023/03/19 03:12:08;;;;;;;40.67;22.47;;;3.90;99.90;;;;;;2603093;54;20030;31
2023/03/19 03:14:43;;;;;;;37.72;20.92;;;3.90;99.90;;;;;;2621590;46;20261;31
2023/03/19 03:17:23;;;;;;;33.35;19.83;;;3.80;99.90;;;;;;2701682;39;20503;31
2023/03/19 03:20:00;;;;;;;38.03;21.77;;;3.90;99.90;;;;;;2603016;54;20027;31
2023/03/19 03:22:35;;;;;;;43.03;22.50;;;3.80;99.90;;;;;;2602217;54;20861;31
2023/03/19 03:25:13;;;;;;;36.75;22.40;;;3.80;99.90;;;;;;2602610;54;20045;31
2023/03/19 03:27:52;;;;;;;35.30;21.17;;;3.80;99.90;;;;;;2602443;54;20052;31
2023/03/19 03:30:30;;;;;;;38.85;21.77;;;3.80;99.90;;;;;;2603110;54;20654;31
2023/03/19 03:33:11;;;;;;;36.55;21.20;;;3.80;99.90;;;;;;2602241;54;20093;31
2023/03/19 03:35:48;;;;;;;35.70;20.70;;;3.80;99.90;;;;;;2701684;39;20617;31
2023/03/19 03:38:23;;;;;;;35.85;22.13;;;3.80;99.90;;;;;;2602926;54;20095;31
2023/03/19 03:41:01;;;;;;;39.05;21.67;;;3.70;99.90;;;;;;2602813;54;20048;31
2023/03/19 03:43:36;;;;;;;38.55;19.88;;;3.70;99.90;;;;;;2602314;54;20034;31
2023/03/19 03:46:12;;;;;;;34.45;20.63;;;3.60;99.90;;;;;;2602562;54;20777;31
2023/03/19 03:48:52;;;;;;;38.35;21.73;;;3.60;99.90;;;;;;2602997;54;21396;31
2023/03/19 03:51:28;;;;;;;36.35;22.02;;;3.60;99.90;;;;;;2602008;54;20026;31
2023/03/19 03:54:07;;;;;;;36.10;21.27;;;3.50;99.90;;;;;;2602419;54;20148;31
2023/03/19 03:56:43;;;;;;;37.20;22.42;;;3.50;99.90;;;;;;2602096;54;19931;31
2023/03/19 03:59:20;;;;;;;37.60;19.85;;;3.40;99.90;;;;;;2621411;47;20031;31
2023/03/19 04:01:56;;;;;;;40.95;20.35;;;3.40;99.90;;;;;;2603115;54;20030;31
2023/03/19 04:04:36;;;;;;;39.13;21.77;;;3.40;99.90;;;;;;2603672;54;20127;31
2023/03/19 04:07:11;;;;;;;32.38;20.83;;;3.40;99.90;;;;;;2603132;54;20847;31
2023/03/19 04:09:51;;;;;;;33.85;19.25;;;3.40;99.90;;;;;;2603709;54;20047;31
2023/03/19 04:12:29;;;;;;;36.55;20.77;;;3.30;99.90;;;;;;2621963;46;20889;31
2023/03/19 04:15:06;;;;;;;37.85;20.95;;;3.30;99.90;;;;;;2603839;54;20022;31
2023/03/19 04:17:46;;;;;;;37.00;21.08;;;3.40;99.90;;;;;;2603713;54;20108;31
2023/03/19 04:20:26;;;;;;;37.45;22.40;;;3.30;99.90;;;;;;2603815;54;20123;31
2023/03/19 04:23:03;;;;;;;40.47;20.73;;;3.30;99.90;;;;;;2602826;54;20896;31
2023/03/19 04:25:42;;;;;;;36.88;21.05;;;3.30;99.90;;;;;;2603934;54;20026;31
2023/03/19 04:28:17;;;;;;;38.95;21.73;;;3.30;99.90;;;;;;2603659;54;20653;31
2023/03/19 04:30:56;;;;;;;33.60;19.70;;;3.30;99.90;;;;;;2622182;46;20022;31
2023/03/19 04:33:32;;;;;;;35.97;21.80;;;3.30;99.90;;;;;;2603832;54;20263;31
2023/03/19 04:36:13;;;;;;;34.08;20.67;;;3.20;99.90;;;;;;2602765;54;20038;31
2023/03/19 04:38:51;;;;;;;38.45;21.23;;;3.20;99.90;;;;;;2702017;39;20590;31
2023/03/19 04:41:28;;;;;;;38.00;21.33;;;3.20;99.90;;;;;;2603651;54;20938;31
2023/03/19 04:44:18;;;;;;;34.58;21.10;;;3.20;99.90;;;;;;2603605;54;20046;31
2023/03/19 04:46:56;;;;;;;34.97;20.35;;;3.20;99.90;;;;;;2603606;54;20089;31
2023/03/19 04:49:33;;;;;;;33.78;20.58;;;3.10;99.90;;;;;;2602887;54;20042;31
2023/03/19 04:52:14;;;;;;;34.70;20.15;;;3.20;99.90;;;;;;2603528;54;20875;31
2023/03/19 04:54:52;;;;;;;40.55;20.90;;;3.10;99.90;;;;;;2603696;54;20042;31
2023/03/19 04:57:28;;;;;;;36.22;20.17;;;3.10;99.90;;;;;;2720833;39;20530;31
2023/03/19 05:00:08;;;;;;;37.58;20.83;;;3.10;99.90;;;;;;2621830;46;20022;31
2023/03/19 05:02:47;;;;;;;33.05;19.60;;;3.20;99.90;;;;;;2603434;54;19989;31
2023/03/19 05:05:23;;;;;;;36.10;19.95;;;3.10;99.90;;;;;;2603736;54;20830;31
2023/03/19 05:08:02;;;;;;;32.20;18.15;;;3.10;99.90;;;;;;2621994;46;21447;31
2023/03/19 05:10:38;;;;;;;37.17;19.33;;;3.10;99.90;;;;;;2603399;54;20030;31
2023/03/19 05:13:19;;;;;;;34.70;20.10;;;3.10;99.90;;;;;;2621684;46;20849;31
2023/03/19 05:16:00;;;;;;;33.97;19.10;;;3.20;99.90;;;;;;2603512;54;20034;31
2023/03/19 05:18:36;;;;;;;41.42;20.70;;;3.20;99.90;;;;;;2603347;54;20877;31
2023/03/19 05:21:16;;;;;;;32.00;19.45;;;3.20;99.90;;;;;;2603409;54;20762;31
2023/03/19 05:23:56;;;;;;;33.80;19.85;;;3.20;99.90;;;;;;2607341;46;20026;31
2023/03/19 05:26:36;;;;;;;37.90;21.08;;;3.20;99.90;;;;;;2603555;54;19934;31
2023/03/19 05:29:30;;;;;;;34.95;19.77;;;3.20;99.90;;;;;;2603478;54;20866;31
2023/03/19 05:32:28;;;;;;;32.65;18.95;;;3.20;99.90;;;;;;2603415;54;20026;31
2023/03/19 05:35:10;;;;;;;32.70;18.83;;;3.20;99.90;;;;;;2603620;54;20027;31
2023/03/19 05:37:46;;;;;;;36.53;19.33;;;3.20;99.90;;;;;;2603405;54;20695;31
2023/03/19 05:40:28;;;;;;;35.85;20.38;;;3.30;99.90;;;;;;2602607;54;20753;31
2023/03/19 05:43:06;;;;;;;36.30;20.15;;;3.30;99.90;;;;;;2603305;54;20033;31
2023/03/19 05:45:44;;;;;;;31.45;19.70;;;3.30;99.90;;;;;;2715593;39;20386;31
2023/03/19 05:48:26;;;;;;;36.97;19.33;;;3.40;99.90;;;;;;2603372;54;20953;31
2023/03/19 05:51:03;;;;;;;35.13;19.25;;;3.50;99.90;;;;;;2603383;54;20030;31
2023/03/19 05:53:43;;;;;;;28.63;17.63;;;3.50;99.90;;;;;;2602572;54;20042;31
2023/03/19 05:56:43;;;;;;;30.60;19.40;;;3.70;99.90;;;;;;2621647;46;20900;31
2023/03/19 05:59:33;;;;;;;32.10;16.90;;;4.00;99.90;;;;;;2603511;54;20890;31
2023/03/19 06:02:22;;;;;;;31.58;17.92;;;4.40;99.90;;;;;;2603398;54;20060;31
2023/03/19 06:05:08;;;;;;;30.98;17.02;;;4.90;99.90;;;;;;2603384;54;20034;31
2023/03/19 06:07:45;;;;;;;31.17;18.05;;;5.30;99.90;;;;;;2603301;54;20931;31
2023/03/19 06:10:49;;;;;;;28.92;16.02;;;5.80;99.90;;;;;;2701804;39;20450;31
2023/03/19 06:13:30;;;;;;;26.85;17.40;;;6.30;99.90;;;;;;2603326;54;20771;31
2023/03/19 06:16:24;;;;;;;28.30;15.70;;;6.60;99.90;;;;;;2603329;54;20580;31
2023/03/19 06:19:01;;;;;;;28.20;17.13;;;6.90;99.90;;;;;;2603370;54;20119;31
2023/03/19 06:21:39;;;;;;;26.42;17.27;;;7.20;99.90;;;;;;2603349;54;20026;31
2023/03/19 06:24:17;;;;;;;24.80;15.35;;;7.30;99.90;;;;;;2603444;54;20863;31
2023/03/19 06:26:55;;;;;;;28.75;17.00;;;7.50;99.90;;;;;;2720542;39;21032;31
2023/03/19 06:29:30;;;;;;;28.15;16.90;;;7.60;99.90;;;;;;2603457;54;20099;31
2023/03/19 06:32:19;;;;;;;30.60;16.77;;;7.60;99.90;;;;;;2622023;46;20026;31
2023/03/19 06:34:58;;;;;;;29.60;16.35;;;7.60;99.90;;;;;;2621817;46;20128;31
2023/03/19 06:37:34;;;;;;;27.70;17.08;;;7.70;99.90;;;;;;2603518;54;20844;31
2023/03/19 06:40:11;;;;;;;30.08;17.35;;;7.80;99.90;;;;;;2603415;54;20882;31
2023/03/19 06:42:47;;;;;;;25.38;16.67;;;7.90;99.90;;;;;;2603467;54;20057;31
2023/03/19 06:45:23;;;;;;;25.10;16.20;;;8.00;99.90;;;;;;2603236;54;20867;31
2023/03/19 06:48:01;;;;;;;25.70;16.90;;;8.00;99.90;;;;;;2602751;54;20957;31
2023/03/19 06:50:40;;;;;;;24.90;15.90;;;8.10;99.90;;;;;;2602567;54;20910;31
2023/03/19 06:53:18;;;;;;;24.52;15.02;;;8.30;99.90;;;;;;2700944;39;20841;31
2023/03/19 06:55:54;;;;;;;25.17;16.80;;;8.40;99.90;;;;;;2621987;46;20027;31
2023/03/19 06:58:34;;;;;;;23.70;15.15;;;8.60;99.90;;;;;;2603183;54;20100;31
2023/03/19 07:01:12;;;;;;;25.98;15.95;;;8.70;99.90;;;;;;2609290;46;20034;31
2023/03/19 07:03:53;;;;;;;71.73;37.70;;;8.90;99.90;;;;;;2602967;54;20916;31
2023/03/19 07:06:28;;;;;;;160.45;79.68;;;9.10;99.90;;;;;;2621761;46;20034;31
2023/03/19 07:09:09;;;;;;;106.32;57.67;;;9.10;99.90;;;;;;2619280;46;20855;31
2023/03/19 07:11:44;;;;;;;41.50;25.35;;;9.10;99.90;;;;;;2603230;54;20887;31
2023/03/19 07:14:22;;;;;;;29.33;19.53;;;9.20;99.90;;;;;;2621617;46;20034;31
2023/03/19 07:16:57;;;;;;;36.55;21.15;;;9.40;99.90;;;;;;2603484;54;20033;31
2023/03/19 07:19:38;;;;;;;30.27;18.50;;;9.60;99.90;;;;;;2603242;54;20026;31
2023/03/19 07:22:18;;;;;;;27.55;16.85;;;9.80;99.90;;;;;;2603385;54;20607;31
2023/03/19 07:24:52;;;;;;;24.55;16.20;;;10.00;99.90;;;;;;2603158;54;20907;31
2023/03/19 07:27:31;;;;;;;28.48;20.85;;;10.00;99.90;;;;;;2603304;54;20053;31
2023/03/19 07:30:12;;;;;;;29.13;17.23;;;10.10;99.90;;;;;;2602571;54;20030;31
2023/03/19 07:32:49;;;;;;;22.77;14.65;;;10.00;99.90;;;;;;2602425;54;20135;31
2023/03/19 07:35:28;;;;;;;23.35;14.73;;;10.20;99.90;;;;;;2602401;54;20033;31
2023/03/19 07:38:04;;;;;;;24.55;16.40;;;10.40;99.90;;;;;;2603450;54;20752;31
2023/03/19 07:40:42;;;;;;;23.08;15.07;;;10.50;99.90;;;;;;2603901;54;20932;31
2023/03/19 07:43:33;;;;;;;23.13;14.18;;;10.80;99.90;;;;;;2622015;46;20031;31
2023/03/19 07:46:09;;;;;;;26.45;17.45;;;11.00;99.90;;;;;;2603893;54;20128;31
2023/03/19 07:48:48;;;;;;;23.25;14.38;;;11.00;99.90;;;;;;2603995;54;20808;31
2023/03/19 07:51:27;;;;;;;26.50;15.57;;;11.30;99.90;;;;;;2603746;54;20952;31
2023/03/19 07:54:04;;;;;;;28.55;14.98;;;11.40;99.90;;;;;;2622238;46;20031;31
2023/03/19 07:56:40;;;;;;;31.02;22.33;;;11.50;99.90;;;;;;2617544;46;20084;31
2023/03/19 07:59:17;;;;;;;33.53;23.40;;;11.60;99.90;;;;;;2603594;54;20034;31
2023/03/19 08:01:56;;;;;;;28.60;18.95;;;11.80;99.90;;;;;;2622778;46;20026;31
2023/03/19 08:07:13;;;;;;;22.08;14.52;;;12.40;99.90;;;;;;2603794;54;20847;31
2023/03/19 08:09:54;;;;;;;21.23;14.20;;;12.70;99.90;;;;;;2603941;54;20026;31
2023/03/19 08:12:30;;;;;;;19.67;13.55;;;12.90;99.90;;;;;;2603827;54;20045;31
2023/03/19 08:15:09;;;;;;;21.47;14.53;;;13.00;99.90;;;;;;2603710;54;20027;31
2023/03/19 08:17:48;;;;;;;25.43;15.07;;;13.00;99.90;;;;;;2602876;54;21034;31
2023/03/19 08:20:25;;;;;;;27.88;16.42;;;12.90;99.90;;;;;;2603680;54;20031;31
2023/03/19 08:23:04;;;;;;;49.42;27.65;;;12.90;99.90;;;;;;2622081;46;20901;31
2023/03/19 08:25:40;;;;;;;32.40;19.83;;;12.90;99.90;;;;;;2603739;54;20791;31
2023/03/19 08:28:17;;;;;;;22.70;14.60;;;13.00;99.90;;;;;;2622343;46;19938;31
2023/03/19 08:30:59;;;;;;;20.35;14.13;;;13.00;99.90;;;;;;2622094;46;20063;31
2023/03/19 08:33:36;;;;;;;18.45;11.85;;;13.10;99.90;;;;;;2603634;54;20096;31
2023/03/19 08:36:14;;;;;;;34.70;21.90;;;13.10;99.90;;;;;;2602947;54;20119;31
2023/03/19 08:38:55;;;;;;;61.58;33.33;;;13.20;99.90;;;;;;2602867;54;20046;31
2023/03/19 08:41:30;;;;;;;35.73;21.00;;;13.10;99.90;;;;;;2603680;54;20821;31
2023/03/19 08:44:08;;;;;;;62.17;36.07;;;13.20;99.90;;;;;;2603011;54;20235;31
2023/03/19 08:46:44;;;;;;;45.70;26.92;;;13.20;99.90;;;;;;2621896;46;20050;31
2023/03/19 08:49:21;;;;;;;24.40;16.40;;;13.20;99.90;;;;;;2603492;54;20163;31
2023/03/19 08:51:57;;;;;;;20.00;13.30;;;13.40;99.90;;;;;;2603893;54;20022;31
2023/03/19 08:54:37;;;;;;;17.83;13.20;;;13.60;99.90;;;;;;2720870;39;20581;31
2023/03/19 08:57:14;;;;;;;19.93;13.03;;;13.70;99.90;;;;;;2603542;54;20026;31
2023/03/19 08:59:51;;;;;;;18.70;12.10;;;13.80;99.90;;;;;;2602843;54;20289;31
2023/03/19 09:02:28;;;;;;;18.70;12.63;;;13.90;99.90;;;;;;2603258;54;24147;31
2023/03/19 09:05:05;;;;;;;19.13;11.88;;;13.90;99.90;;;;;;2603495;54;20042;31
2023/03/19 09:07:42;;;;;;;19.70;12.75;;;14.00;99.90;;;;;;2621519;46;20022;31
2023/03/19 09:10:20;;;;;;;84.65;39.70;;;13.90;99.90;;;;;;2621376;46;20034;31
2023/03/19 09:12:57;;;;;;;43.13;23.80;;;14.00;99.90;;;;;;2702210;39;20608;31
2023/03/19 09:15:34;;;;;;;17.90;11.75;;;14.00;99.90;;;;;;2603715;54;20099;31
2023/03/19 09:18:12;;;;;;;21.38;14.13;;;13.90;99.90;;;;;;2603617;54;20052;31
2023/03/19 09:20:48;;;;;;;18.45;13.27;;;14.00;99.90;;;;;;2603738;54;20034;31
2023/03/19 09:23:25;;;;;;;18.48;14.90;;;14.30;99.90;;;;;;2603360;54;19935;31
2023/03/19 09:26:05;;;;;;;16.13;11.80;;;14.70;99.90;;;;;;2603714;54;20054;31
2023/03/19 09:28:44;;;;;;;18.85;11.40;;;14.90;98.80;;;;;;2622352;46;19935;31
2023/03/19 09:31:21;;;;;;;18.67;13.35;;;15.00;99.00;;;;;;2702374;39;20896;31
2023/03/19 09:33:58;;;;;;;18.45;12.23;;;15.00;98.50;;;;;;2603605;54;20068;31
2023/03/19 09:36:34;;;;;;;15.80;11.47;;;15.10;98.60;;;;;;2621770;46;20022;31
2023/03/19 09:39:15;;;;;;;22.40;14.70;;;15.10;98.30;;;;;;2603478;54;20049;31
2023/03/19 09:44:42;;;;;;;21.20;14.00;;;15.10;97.50;;;;;;2602920;54;20041;31
2023/03/19 09:47:30;;;;;;;17.70;11.32;;;15.00;97.20;;;;;;2603546;54;24627;31
2023/03/19 09:50:27;;;;;;;18.73;10.90;;;15.00;96.90;;;;;;2603408;54;20061;31
2023/03/19 09:53:10;;;;;;;18.90;12.18;;;14.90;97.80;;;;;;2603374;54;20049;31
2023/03/19 09:55:51;;;;;;;16.60;12.23;;;14.90;96.90;;;;;;2602926;54;20942;31
2023/03/19 09:58:30;;;;;;;17.57;10.90;;;14.90;95.90;;;;;;2614241;46;20034;31
2023/03/19 10:01:09;;;;;;;15.77;11.00;;;15.00;96.00;;;;;;2603097;54;20030;31
2023/03/19 10:03:49;;;;;;;16.10;10.55;;;15.10;94.90;;;;;;2603206;54;20939;31
2023/03/19 10:06:24;;;;;;;15.18;10.52;;;15.40;95.60;;;;;;2701675;39;20500;31
2023/03/19 10:09:41;;;;;;;15.40;10.40;;;15.70;95.20;;;;;;2603318;54;20038;31
2023/03/19 10:12:46;;;;;;;17.35;10.50;;;15.80;94.30;;;;;;2603350;54;20112;31
2023/03/19 10:15:27;;;;;;;13.63;9.68;;;15.80;93.90;;;;;;2602766;54;19942;31
2023/03/19 10:18:09;;;;;;;14.68;9.65;;;15.80;93.60;;;;;;2621764;46;19935;31
2023/03/19 10:20:49;;;;;;;14.52;10.25;;;15.80;93.90;;;;;;2603530;54;20022;31
2023/03/19 10:23:31;;;;;;;12.90;9.38;;;15.90;93.30;;;;;;2603266;54;20136;31
2023/03/19 10:26:06;;;;;;;12.38;8.88;;;16.10;93.70;;;;;;2603526;54;20030;31
2023/03/19 10:28:46;;;;;;;14.10;9.35;;;16.40;94.00;;;;;;2603136;54;20132;31
2023/03/19 10:31:32;;;;;;;12.30;9.53;;;16.40;92.90;;;;;;2602774;54;21431;31
2023/03/19 10:34:52;;;;;;;14.40;8.95;;;16.40;92.00;;;;;;2603493;54;20900;31
2023/03/19 10:37:30;;;;;;;13.63;9.55;;;16.50;92.00;;;;;;2602971;54;20839;31
2023/03/19 10:43:30;;;;;;;14.05;9.15;;;16.60;93.50;;;;;;2603289;54;20026;31
2023/03/19 10:46:09;;;;;;;12.38;9.57;;;16.60;93.30;;;;;;2621894;46;20124;31
2023/03/19 10:48:46;;;;;;;15.35;8.68;;;16.60;93.50;;;;;;2621720;46;20853;31
2023/03/19 10:51:28;;;;;;;11.73;9.02;;;16.70;93.50;;;;;;2622019;46;20869;31
2023/03/19 10:54:06;;;;;;;11.23;8.18;;;16.80;93.10;;;;;;2603086;54;20096;31
2023/03/19 10:56:42;;;;;;;11.32;8.40;;;16.90;93.10;;;;;;2603087;54;20048;31
2023/03/19 10:59:25;;;;;;;13.20;8.40;;;16.90;92.30;;;;;;2603226;54;20994;31
2023/03/19 11:02:02;;;;;;;12.70;8.85;;;16.90;92.50;;;;;;2621490;46;20961;31
2023/03/19 11:04:38;;;;;;;13.18;7.97;;;16.90;92.20;;;;;;2603357;54;20934;31
2023/03/19 11:07:20;;;;;;;11.18;7.90;;;17.00;93.40;;;;;;2603106;54;20038;31
2023/03/19 11:09:56;;;;;;;12.35;7.45;;;17.10;92.10;;;;;;2603305;54;20027;31
2023/03/19 11:12:36;;;;;;;10.80;7.15;;;17.20;91.60;;;;;;2603067;54;20767;31
2023/03/19 11:15:10;;;;;;;11.93;7.63;;;17.20;91.50;;;;;;2621488;46;20026;31
2023/03/19 11:17:50;;;;;;;11.63;7.00;;;17.30;91.40;;;;;;2603280;54;20045;31
2023/03/19 11:20:30;;;;;;;14.90;8.00;;;17.30;91.10;;;;;;2603055;54;20092;31
2023/03/19 11:23:11;;;;;;;10.80;7.40;;;17.30;90.20;;;;;;2607492;46;20143;31
2023/03/19 11:25:48;;;;;;;10.50;7.30;;;17.20;90.50;;;;;;2701630;39;22527;31
2023/03/19 11:28:25;;;;;;;12.20;7.30;;;17.20;91.30;;;;;;2603020;54;20034;31
2023/03/19 11:31:05;;;;;;;9.98;7.65;;;17.10;90.60;;;;;;2603397;54;20029;31
2023/03/19 11:33:41;;;;;;;9.27;7.50;;;17.10;90.50;;;;;;2603075;54;20770;31
2023/03/19 11:36:21;;;;;;;9.80;6.93;;;17.10;91.30;;;;;;2603271;54;20081;31
2023/03/19 11:39:15;;;;;;;10.23;7.03;;;17.00;91.30;;;;;;2603030;54;20152;31
2023/03/19 11:42:02;;;;;;;9.77;6.80;;;16.90;91.10;;;;;;2621213;47;20760;31
2023/03/19 11:44:42;;;;;;;10.63;7.65;;;16.90;90.20;;;;;;2603178;54;20894;31
2023/03/19 11:50:17;;;;;;;12.25;8.00;;;17.00;90.50;;;;;;2602879;54;20135;31
2023/03/19 11:53:00;;;;;;;9.38;6.70;;;17.10;90.20;;;;;;2603117;54;20077;31
2023/03/19 11:55:43;;;;;;;9.00;6.40;;;17.10;89.70;;;;;;2621403;47;20147;31
2023/03/19 11:58:41;;;;;;;10.18;6.82;;;17.20;90.50;;;;;;2602851;54;20891;31
2023/03/19 12:01:24;;;;;;;10.80;7.45;;;17.10;89.10;;;;;;2602725;54;20852;31
2023/03/19 12:04:41;;;;;;;13.52;7.65;;;17.20;90.30;;;;;;2602857;54;20828;31
2023/03/19 12:07:20;;;;;;;12.20;7.55;;;17.30;89.20;;;;;;2603021;54;20870;31
2023/03/19 12:09:59;;;;;;;9.33;6.83;;;17.40;90.70;;;;;;2621206;47;20027;31
2023/03/19 12:12:40;;;;;;;10.55;7.35;;;17.40;90.10;;;;;;2602698;54;20560;31
2023/03/19 12:15:18;;;;;;;10.85;6.93;;;17.30;88.60;;;;;;2602285;54;20027;31
2023/03/19 12:18:01;;;;;;;10.23;6.70;;;17.30;89.60;;;;;;2602798;54;20919;31
2023/03/19 12:20:45;;;;;;;8.85;5.78;;;17.30;89.40;;;;;;2602858;47;20036;31
2023/03/19 12:23:28;;;;;;;9.43;6.60;;;17.30;90.80;;;;;;2621363;47;20847;31
2023/03/19 12:26:03;;;;;;;11.65;8.50;;;17.30;90.40;;;;;;2622075;46;20031;31
2023/03/19 12:28:43;;;;;;;11.27;7.45;;;17.20;89.80;;;;;;2603610;54;20584;31
2023/03/19 12:31:36;;;;;;;9.57;7.53;;;17.20;89.20;;;;;;2603501;54;20099;31
2023/03/19 12:34:20;;;;;;;13.80;7.57;;;17.20;89.80;;;;;;2622035;46;21011;31
2023/03/19 12:36:59;;;;;;;11.27;7.18;;;17.20;90.70;;;;;;2603782;54;20856;31
2023/03/19 12:39:37;;;;;;;12.23;7.90;;;17.20;90.70;;;;;;2603829;54;20865;31
2023/03/19 12:42:14;;;;;;;11.10;8.07;;;17.20;90.00;;;;;;2621804;46;20834;31
2023/03/19 12:44:55;;;;;;;10.60;8.18;;;17.30;90.20;;;;;;2622040;46;19942;31
2023/03/19 12:47:35;;;;;;;12.93;9.67;;;17.30;90.20;;;;;;2602979;54;20826;31
2023/03/19 12:50:16;;;;;;;11.02;8.52;;;17.30;91.00;;;;;;2621261;46;22432;31
2023/03/19 12:52:55;;;;;;;14.65;9.20;;;17.20;91.40;;;;;;2701300;39;20493;31
2023/03/19 12:55:37;;;;;;;13.80;10.00;;;17.20;91.70;;;;;;2622406;46;20584;31
2023/03/19 12:58:17;;;;;;;12.75;9.77;;;17.20;91.90;;;;;;2603727;54;20719;31
2023/03/19 13:00:52;;;;;;;14.80;9.30;;;17.20;92.30;;;;;;2603682;54;20587;31
2023/03/19 13:03:35;;;;;;;12.07;9.32;;;17.20;92.00;;;;;;2603637;54;20239;31
2023/03/19 13:06:12;;;;;;;12.90;9.32;;;17.20;92.50;;;;;;2603720;54;20030;31
2023/03/19 13:08:51;;;;;;;11.35;8.30;;;17.20;92.00;;;;;;2621758;46;20941;31
2023/03/19 13:11:34;;;;;;;11.80;8.40;;;17.20;91.80;;;;;;2622306;46;20037;31
2023/03/19 13:14:16;;;;;;;14.20;9.80;;;17.20;91.80;;;;;;2603671;54;20656;31
2023/03/19 13:16:56;;;;;;;11.27;8.57;;;17.20;91.60;;;;;;2622122;46;20050;31
2023/03/19 13:19:31;;;;;;;12.60;9.70;;;17.20;92.10;;;;;;2603429;54;20050;31
2023/03/19 13:22:11;;;;;;;12.53;8.33;;;17.10;91.60;;;;;;2621984;46;21398;31
2023/03/19 13:24:49;;;;;;;13.00;9.32;;;17.20;92.40;;;;;;2603610;54;20764;31
2023/03/19 13:27:23;;;;;;;12.30;9.13;;;17.10;92.20;;;;;;2603763;54;20558;31
2023/03/19 13:30:04;;;;;;;12.73;9.35;;;17.20;92.00;;;;;;2720455;39;21470;31
2023/03/19 13:32:42;;;;;;;15.27;10.23;;;17.20;92.70;;;;;;2603728;54;20037;31
2023/03/19 13:35:39;;;;;;;11.30;8.02;;;17.30;92.50;;;;;;2603289;54;20038;31
2023/03/19 13:38:24;;;;;;;17.30;9.80;;;17.30;92.20;;;;;;2603733;54;20029;31
2023/03/19 13:41:02;;;;;;;15.43;9.37;;;17.30;91.70;;;;;;2603375;54;20782;31
2023/03/19 13:43:48;;;;;;;11.95;9.50;;;17.30;91.70;;;;;;2603334;54;22396;31
2023/03/19 13:46:25;;;;;;;13.13;9.57;;;17.20;91.40;;;;;;2621864;46;20760;31
2023/03/19 13:49:12;;;;;;;13.05;9.10;;;17.10;91.90;;;;;;2702127;39;21495;31
2023/03/19 13:51:53;;;;;;;12.38;9.35;;;17.10;91.60;;;;;;2773481;31;20560;31
2023/03/19 13:54:42;;;;;;;11.80;9.40;;;17.10;91.70;;;;;;2603112;54;20033;31
2023/03/19 13:57:36;;;;;;;13.20;8.73;;;17.00;91.70;;;;;;2603340;54;20926;31
2023/03/19 14:00:56;;;;;;;66.50;57.30;;;17.00;91.80;;;;;;2603391;54;20630;31
2023/03/19 14:06:09;;;;;;;19.85;15.75;;;17.00;91.70;;;;;;2603297;54;20027;31